sensor_id;sensor_type;location;lat;lon;timestamp;temperature;humidity
2030;DHT22;1020;48.854;8.830;2023-03-04T00:02:08;1.00;99.90
2030;DHT22;1020;48.854;8.830;2023-03-04T00:04:34;0.90;1.00
2030;DHT22;1020;48.854;8.830;2023-03-04T00:07:01;0.80;1.00
2030;DHT22;1020;48.854;8.830;2023-03-04T00:09:28;0.70;1.00
2030;DHT22;1020;48.854;8.830;2023-03-04T00:11:54;0.70;99.90
2030;DHT22;1020;48.854;8.830;2023-03-04T00:14:21;0.70;99.90
2030;DHT22;1020;48.854;8.830;2023-03-04T00:16:48;0.70;99.90
2030;DHT22;1020;48.854;8.830;2023-03-04T00:19:16;0.70;99.90
2030;DHT22;1020;48.854;8.830;2023-03-04T00:21:43;0.60;99.90
2030;DHT22;1020;48.854;8.830;2023-03-04T00:24:09;0.60;99.90
2030;DHT22;1020;48.854;8.830;2023-03-04T00:26:36;0.60;1.00
2030;DHT22;1020;48.854;8.830;2023-03-04T00:29:03;0.60;1.00
2030;DHT22;1020;48.854;8.830;2023-03-04T00:31:30;0.60;1.00
2030;DHT22;1020;48.854;8.830;2023-03-04T00:33:56;0.50;1.00
2030;DHT22;1020;48.854;8.830;2023-03-04T00:36:24;0.40;41.40
2030;DHT22;1020;48.854;8.830;2023-03-04T00:38:51;0.40;1.00
2030;DHT22;1020;48.854;8.830;2023-03-04T00:41:18;0.40;1.00
2030;DHT22;1020;48.854;8.830;2023-03-04T00:43:45;0.30;1.00
2030;DHT22;1020;48.854;8.830;2023-03-04T00:46:11;0.40;1.00
2030;DHT22;1020;48.854;8.830;2023-03-04T00:48:38;0.30;1.00
2030;DHT22;1020;48.854;8.830;2023-03-04T00:51:05;0.30;1.00
2030;DHT22;1020;48.854;8.830;2023-03-04T00:53:33;0.30;1.00
2030;DHT22;1020;48.854;8.830;2023-03-04T00:56:00;0.40;1.00
2030;DHT22;1020;48.854;8.830;2023-03-04T00:58:26;0.40;1.00
2030;DHT22;1020;48.854;8.830;2023-03-04T01:00:53;0.30;1.00
2030;DHT22;1020;48.854;8.830;2023-03-04T01:03:20;0.30;1.00
2030;DHT22;1020;48.854;8.830;2023-03-04T01:05:46;0.30;1.00
2030;DHT22;1020;48.854;8.830;2023-03-04T01:08:13;0.30;1.00
2030;DHT22;1020;48.854;8.830;2023-03-04T01:10:41;0.30;1.00
2030;DHT22;1020;48.854;8.830;2023-03-04T01:13:08;0.30;1.00
2030;DHT22;1020;48.854;8.830;2023-03-04T01:15:34;0.30;1.00
2030;DHT22;1020;48.854;8.830;2023-03-04T01:18:01;0.20;99.90
2030;DHT22;1020;48.854;8.830;2023-03-04T01:20:28;0.10;1.00
2030;DHT22;1020;48.854;8.830;2023-03-04T01:22:55;0.10;99.90
2030;DHT22;1020;48.854;8.830;2023-03-04T01:25:22;0.10;99.90
2030;DHT22;1020;48.854;8.830;2023-03-04T01:27:50;0.00;99.90
2030;DHT22;1020;48.854;8.830;2023-03-04T01:30:17;0.00;1.00
2030;DHT22;1020;48.854;8.830;2023-03-04T01:32:44;0.00;99.90
2030;DHT22;1020;48.854;8.830;2023-03-04T01:35:10;-0.10;99.90
2030;DHT22;1020;48.854;8.830;2023-03-04T01:37:37;-0.20;99.90
2030;DHT22;1020;48.854;8.830;2023-03-04T01:40:04;-0.30;99.90
2030;DHT22;1020;48.854;8.830;2023-03-04T01:42:33;-0.30;99.90
2030;DHT22;1020;48.854;8.830;2023-03-04T01:45:03;-0.30;99.90
2030;DHT22;1020;48.854;8.830;2023-03-04T01:47:32;-0.40;99.90
2030;DHT22;1020;48.854;8.830;2023-03-04T01:50:02;-0.40;1.00
2030;DHT22;1020;48.854;8.830;2023-03-04T01:52:29;-0.40;1.00
2030;DHT22;1020;48.854;8.830;2023-03-04T01:54:56;-0.40;1.00
2030;DHT22;1020;48.854;8.830;2023-03-04T01:57:25;-0.50;1.00
2030;DHT22;1020;48.854;8.830;2023-03-04T02:00:18;-0.50;1.00
2030;DHT22;1020;48.854;8.830;2023-03-04T02:02:45;-0.60;1.00
2030;DHT22;1020;48.854;8.830;2023-03-04T02:05:13;-0.60;1.00
2030;DHT22;1020;48.854;8.830;2023-03-04T02:07:41;-0.60;1.00
2030;DHT22;1020;48.854;8.830;2023-03-04T02:10:09;-0.60;1.00
2030;DHT22;1020;48.854;8.830;2023-03-04T02:12:36;-0.70;1.00
2030;DHT22;1020;48.854;8.830;2023-03-04T02:15:04;-0.70;1.00
2030;DHT22;1020;48.854;8.830;2023-03-04T02:17:32;-0.60;1.00
2030;DHT22;1020;48.854;8.830;2023-03-04T02:20:03;-0.70;1.00
2030;DHT22;1020;48.854;8.830;2023-03-04T02:22:36;-0.60;1.00
2030;DHT22;1020;48.854;8.830;2023-03-04T02:25:06;-0.70;1.00
2030;DHT22;1020;48.854;8.830;2023-03-04T02:27:37;-0.80;1.00
2030;DHT22;1020;48.854;8.830;2023-03-04T02:30:05;-0.90;1.00
2030;DHT22;1020;48.854;8.830;2023-03-04T02:32:32;-0.80;1.00
2030;DHT22;1020;48.854;8.830;2023-03-04T02:34:59;-0.90;1.00
2030;DHT22;1020;48.854;8.830;2023-03-04T02:37:25;-0.90;1.00
2030;DHT22;1020;48.854;8.830;2023-03-04T02:39:52;-0.90;1.00
2030;DHT22;1020;48.854;8.830;2023-03-04T02:42:19;-0.80;1.00
2030;DHT22;1020;48.854;8.830;2023-03-04T02:44:47;-0.90;1.00
2030;DHT22;1020;48.854;8.830;2023-03-04T02:47:17;-0.90;1.00
2030;DHT22;1020;48.854;8.830;2023-03-04T02:49:44;-0.90;1.00
2030;DHT22;1020;48.854;8.830;2023-03-04T02:52:14;-0.90;1.00
2030;DHT22;1020;48.854;8.830;2023-03-04T02:54:41;-1.00;1.00
2030;DHT22;1020;48.854;8.830;2023-03-04T02:57:09;-1.10;1.00
2030;DHT22;1020;48.854;8.830;2023-03-04T02:59:37;-1.00;10.90
2030;DHT22;1020;48.854;8.830;2023-03-04T03:02:06;-1.10;21.80
2030;DHT22;1020;48.854;8.830;2023-03-04T03:04:34;-1.10;40.20
2030;DHT22;1020;48.854;8.830;2023-03-04T03:07:02;-1.10;40.60
2030;DHT22;1020;48.854;8.830;2023-03-04T03:09:28;-1.20;44.40
2030;DHT22;1020;48.854;8.830;2023-03-04T03:11:55;-1.20;49.20
2030;DHT22;1020;48.854;8.830;2023-03-04T03:14:22;-1.20;64.40
2030;DHT22;1020;48.854;8.830;2023-03-04T03:16:49;-1.20;73.00
2030;DHT22;1020;48.854;8.830;2023-03-04T03:19:17;-1.20;74.50
2030;DHT22;1020;48.854;8.830;2023-03-04T03:21:43;-1.20;68.00
2030;DHT22;1020;48.854;8.830;2023-03-04T03:24:10;-1.20;68.00
2030;DHT22;1020;48.854;8.830;2023-03-04T03:26:37;-1.20;55.40
2030;DHT22;1020;48.854;8.830;2023-03-04T03:29:04;-1.40;52.60
2030;DHT22;1020;48.854;8.830;2023-03-04T03:31:31;-1.40;70.70
2030;DHT22;1020;48.854;8.830;2023-03-04T03:33:57;-1.50;88.60
2030;DHT22;1020;48.854;8.830;2023-03-04T03:36:25;-1.50;91.70
2030;DHT22;1020;48.854;8.830;2023-03-04T03:38:52;-1.50;92.90
2030;DHT22;1020;48.854;8.830;2023-03-04T03:41:19;-1.50;96.40
2030;DHT22;1020;48.854;8.830;2023-03-04T03:43:45;-1.50;98.90
2030;DHT22;1020;48.854;8.830;2023-03-04T03:46:12;-1.50;99.90
2030;DHT22;1020;48.854;8.830;2023-03-04T03:48:39;-1.50;99.90
2030;DHT22;1020;48.854;8.830;2023-03-04T03:51:06;-1.50;99.90
2030;DHT22;1020;48.854;8.830;2023-03-04T03:53:34;-1.50;99.90
2030;DHT22;1020;48.854;8.830;2023-03-04T03:56:00;-1.50;99.90
2030;DHT22;1020;48.854;8.830;2023-03-04T03:58:27;-1.50;99.90
2030;DHT22;1020;48.854;8.830;2023-03-04T04:00:54;-1.50;99.90
2030;DHT22;1020;48.854;8.830;2023-03-04T04:03:21;-1.50;99.90
2030;DHT22;1020;48.854;8.830;2023-03-04T04:05:47;-1.50;99.90
2030;DHT22;1020;48.854;8.830;2023-03-04T04:08:15;-1.50;99.90
2030;DHT22;1020;48.854;8.830;2023-03-04T04:10:43;-1.50;99.90
2030;DHT22;1020;48.854;8.830;2023-03-04T04:13:10;-1.50;99.70
2030;DHT22;1020;48.854;8.830;2023-03-04T04:15:37;-1.50;98.60
2030;DHT22;1020;48.854;8.830;2023-03-04T04:18:05;-1.60;93.20
2030;DHT22;1020;48.854;8.830;2023-03-04T04:20:31;-1.60;92.80
2030;DHT22;1020;48.854;8.830;2023-03-04T04:22:58;-1.70;99.20
2030;DHT22;1020;48.854;8.830;2023-03-04T04:25:25;-1.70;99.90
2030;DHT22;1020;48.854;8.830;2023-03-04T04:27:53;-1.70;99.90
2030;DHT22;1020;48.854;8.830;2023-03-04T04:30:20;-1.70;99.90
2030;DHT22;1020;48.854;8.830;2023-03-04T04:32:46;-1.70;99.90
2030;DHT22;1020;48.854;8.830;2023-03-04T04:35:13;-1.70;99.90
2030;DHT22;1020;48.854;8.830;2023-03-04T04:37:40;-1.70;99.90
2030;DHT22;1020;48.854;8.830;2023-03-04T04:40:08;-1.60;99.90
2030;DHT22;1020;48.854;8.830;2023-03-04T04:42:35;-1.60;99.90
2030;DHT22;1020;48.854;8.830;2023-03-04T04:45:04;-1.60;99.10
2030;DHT22;1020;48.854;8.830;2023-03-04T04:47:30;-1.60;96.70
2030;DHT22;1020;48.854;8.830;2023-03-04T04:49:57;-1.60;96.40
2030;DHT22;1020;48.854;8.830;2023-03-04T04:52:24;-1.60;91.90
2030;DHT22;1020;48.854;8.830;2023-03-04T04:54:51;-1.60;92.00
2030;DHT22;1020;48.854;8.830;2023-03-04T04:57:17;-1.60;91.90
2030;DHT22;1020;48.854;8.830;2023-03-04T04:59:44;-1.70;93.00
2030;DHT22;1020;48.854;8.830;2023-03-04T05:02:12;-1.70;90.10
2030;DHT22;1020;48.854;8.830;2023-03-04T05:04:39;-1.80;87.80
2030;DHT22;1020;48.854;8.830;2023-03-04T05:07:06;-1.90;96.20
2030;DHT22;1020;48.854;8.830;2023-03-04T05:09:32;-2.00;98.90
2030;DHT22;1020;48.854;8.830;2023-03-04T05:11:59;-2.00;99.90
2030;DHT22;1020;48.854;8.830;2023-03-04T05:14:26;-2.00;99.90
2030;DHT22;1020;48.854;8.830;2023-03-04T05:16:53;-2.00;99.90
2030;DHT22;1020;48.854;8.830;2023-03-04T05:19:21;-1.90;99.90
2030;DHT22;1020;48.854;8.830;2023-03-04T05:21:48;-1.90;97.90
2030;DHT22;1020;48.854;8.830;2023-03-04T05:24:14;-1.90;92.50
2030;DHT22;1020;48.854;8.830;2023-03-04T05:26:41;-1.90;97.40
2030;DHT22;1020;48.854;8.830;2023-03-04T05:29:08;-1.90;97.10
2030;DHT22;1020;48.854;8.830;2023-03-04T05:31:35;-2.00;96.40
2030;DHT22;1020;48.854;8.830;2023-03-04T05:34:01;-1.90;94.70
2030;DHT22;1020;48.854;8.830;2023-03-04T05:36:29;-2.00;86.10
2030;DHT22;1020;48.854;8.830;2023-03-04T05:38:56;-2.00;78.20
2030;DHT22;1020;48.854;8.830;2023-03-04T05:41:23;-2.00;72.80
2030;DHT22;1020;48.854;8.830;2023-03-04T05:43:50;-2.00;68.50
2030;DHT22;1020;48.854;8.830;2023-03-04T05:46:17;-2.00;74.90
2030;DHT22;1020;48.854;8.830;2023-03-04T05:48:48;-2.00;76.90
2030;DHT22;1020;48.854;8.830;2023-03-04T05:51:15;-2.10;68.00
2030;DHT22;1020;48.854;8.830;2023-03-04T05:53:43;-2.10;71.90
2030;DHT22;1020;48.854;8.830;2023-03-04T05:56:11;-2.20;59.20
2030;DHT22;1020;48.854;8.830;2023-03-04T05:58:38;-2.30;68.10
2030;DHT22;1020;48.854;8.830;2023-03-04T06:01:06;-2.10;65.70
2030;DHT22;1020;48.854;8.830;2023-03-04T06:03:33;-2.10;56.80
2030;DHT22;1020;48.854;8.830;2023-03-04T06:06:00;-2.20;59.40
2030;DHT22;1020;48.854;8.830;2023-03-04T06:08:26;-2.20;71.80
2030;DHT22;1020;48.854;8.830;2023-03-04T06:10:55;-2.20;83.90
2030;DHT22;1020;48.854;8.830;2023-03-04T06:13:23;-2.20;90.80
2030;DHT22;1020;48.854;8.830;2023-03-04T06:15:53;-2.20;99.90
2030;DHT22;1020;48.854;8.830;2023-03-04T06:18:20;-2.20;99.90
2030;DHT22;1020;48.854;8.830;2023-03-04T06:20:47;-2.20;99.90
2030;DHT22;1020;48.854;8.830;2023-03-04T06:23:13;-2.20;99.90
2030;DHT22;1020;48.854;8.830;2023-03-04T06:25:40;-2.10;99.90
2030;DHT22;1020;48.854;8.830;2023-03-04T06:28:08;-2.10;99.90
2030;DHT22;1020;48.854;8.830;2023-03-04T06:30:35;-1.90;99.90
2030;DHT22;1020;48.854;8.830;2023-03-04T06:33:02;-1.80;99.90
2030;DHT22;1020;48.854;8.830;2023-03-04T06:35:28;-1.70;99.90
2030;DHT22;1020;48.854;8.830;2023-03-04T06:37:55;-1.60;99.90
2030;DHT22;1020;48.854;8.830;2023-03-04T06:40:22;-1.50;99.90
2030;DHT22;1020;48.854;8.830;2023-03-04T06:42:48;-1.50;99.90
2030;DHT22;1020;48.854;8.830;2023-03-04T06:45:17;-1.40;99.90
2030;DHT22;1020;48.854;8.830;2023-03-04T06:47:43;-1.30;99.90
2030;DHT22;1020;48.854;8.830;2023-03-04T06:50:11;-1.20;99.90
2030;DHT22;1020;48.854;8.830;2023-03-04T06:52:38;-1.20;99.90
2030;DHT22;1020;48.854;8.830;2023-03-04T06:55:06;-1.20;99.90
2030;DHT22;1020;48.854;8.830;2023-03-04T06:57:33;-1.10;99.90
2030;DHT22;1020;48.854;8.830;2023-03-04T07:00:00;-0.90;99.90
2030;DHT22;1020;48.854;8.830;2023-03-04T07:02:29;-0.90;99.90
2030;DHT22;1020;48.854;8.830;2023-03-04T07:04:56;-0.80;99.90
2030;DHT22;1020;48.854;8.830;2023-03-04T07:07:22;-0.70;99.90
2030;DHT22;1020;48.854;8.830;2023-03-04T07:09:50;-0.60;99.90
2030;DHT22;1020;48.854;8.830;2023-03-04T07:12:17;-0.50;99.90
2030;DHT22;1020;48.854;8.830;2023-03-04T07:14:44;-0.40;99.90
2030;DHT22;1020;48.854;8.830;2023-03-04T07:17:11;-0.20;99.90
2030;DHT22;1020;48.854;8.830;2023-03-04T07:19:39;-0.10;99.90
2030;DHT22;1020;48.854;8.830;2023-03-04T07:22:06;0.00;99.90
2030;DHT22;1020;48.854;8.830;2023-03-04T07:24:33;0.10;99.90
2030;DHT22;1020;48.854;8.830;2023-03-04T07:26:59;0.20;99.90
2030;DHT22;1020;48.854;8.830;2023-03-04T07:29:26;0.30;99.90
2030;DHT22;1020;48.854;8.830;2023-03-04T07:31:53;0.40;99.90
2030;DHT22;1020;48.854;8.830;2023-03-04T07:34:20;0.50;99.90
2030;DHT22;1020;48.854;8.830;2023-03-04T07:36:48;0.60;99.90
2030;DHT22;1020;48.854;8.830;2023-03-04T07:39:15;0.70;99.90
2030;DHT22;1020;48.854;8.830;2023-03-04T07:41:41;0.50;99.90
2030;DHT22;1020;48.854;8.830;2023-03-04T07:44:11;0.60;99.90
2030;DHT22;1020;48.854;8.830;2023-03-04T07:46:38;0.70;99.90
2030;DHT22;1020;48.854;8.830;2023-03-04T07:49:05;0.70;99.90
2030;DHT22;1020;48.854;8.830;2023-03-04T07:51:32;0.80;99.90
2030;DHT22;1020;48.854;8.830;2023-03-04T07:54:01;0.80;99.90
2030;DHT22;1020;48.854;8.830;2023-03-04T07:56:30;0.90;99.90
2030;DHT22;1020;48.854;8.830;2023-03-04T07:58:57;1.00;99.90
2030;DHT22;1020;48.854;8.830;2023-03-04T08:01:28;0.90;99.90
2030;DHT22;1020;48.854;8.830;2023-03-04T08:03:55;1.00;99.90
2030;DHT22;1020;48.854;8.830;2023-03-04T08:06:23;1.10;99.90
2030;DHT22;1020;48.854;8.830;2023-03-04T08:08:55;1.00;99.90
2030;DHT22;1020;48.854;8.830;2023-03-04T08:11:24;1.10;99.40
2030;DHT22;1020;48.854;8.830;2023-03-04T08:13:51;1.10;90.30
2030;DHT22;1020;48.854;8.830;2023-03-04T08:16:20;1.10;90.80
2030;DHT22;1020;48.854;8.830;2023-03-04T08:18:49;1.10;91.50
2030;DHT22;1020;48.854;8.830;2023-03-04T08:21:17;1.20;89.30
2030;DHT22;1020;48.854;8.830;2023-03-04T08:23:45;0.50;81.70
2030;DHT22;1020;48.854;8.830;2023-03-04T08:26:14;1.00;71.60
2030;DHT22;1020;48.854;8.830;2023-03-04T08:28:42;1.20;91.00
2030;DHT22;1020;48.854;8.830;2023-03-04T08:31:11;1.50;93.30
2030;DHT22;1020;48.854;8.830;2023-03-04T08:33:38;1.70;93.90
2030;DHT22;1020;48.854;8.830;2023-03-04T08:36:05;1.80;87.20
2030;DHT22;1020;48.854;8.830;2023-03-04T08:38:32;1.70;34.70
2030;DHT22;1020;48.854;8.830;2023-03-04T08:40:59;1.90;58.30
2030;DHT22;1020;48.854;8.830;2023-03-04T08:43:27;2.00;43.40
2030;DHT22;1020;48.854;8.830;2023-03-04T08:45:55;2.20;39.50
2030;DHT22;1020;48.854;8.830;2023-03-04T08:48:22;2.20;17.10
2030;DHT22;1020;48.854;8.830;2023-03-04T08:50:50;2.40;26.30
2030;DHT22;1020;48.854;8.830;2023-03-04T08:53:17;0.90;12.40
2030;DHT22;1020;48.854;8.830;2023-03-04T08:55:44;2.50;1.00
2030;DHT22;1020;48.854;8.830;2023-03-04T08:58:11;2.60;1.00
2030;DHT22;1020;48.854;8.830;2023-03-04T09:00:42;2.70;1.00
2030;DHT22;1020;48.854;8.830;2023-03-04T09:03:14;2.70;1.00
2030;DHT22;1020;48.854;8.830;2023-03-04T09:05:41;2.50;1.00
2030;DHT22;1020;48.854;8.830;2023-03-04T09:08:08;2.40;1.00
2030;DHT22;1020;48.854;8.830;2023-03-04T09:10:35;2.30;1.00
2030;DHT22;1020;48.854;8.830;2023-03-04T09:13:02;2.30;1.00
2030;DHT22;1020;48.854;8.830;2023-03-04T09:15:30;2.40;1.00
2030;DHT22;1020;48.854;8.830;2023-03-04T09:18:00;2.40;1.00
2030;DHT22;1020;48.854;8.830;2023-03-04T09:20:28;0.20;99.90
2030;DHT22;1020;48.854;8.830;2023-03-04T09:22:55;2.40;33.50
2030;DHT22;1020;48.854;8.830;2023-03-04T09:25:22;2.50;99.90
2030;DHT22;1020;48.854;8.830;2023-03-04T09:27:49;2.50;1.00
2030;DHT22;1020;48.854;8.830;2023-03-04T09:30:19;2.60;1.00
2030;DHT22;1020;48.854;8.830;2023-03-04T09:32:46;2.70;1.00
2030;DHT22;1020;48.854;8.830;2023-03-04T09:35:13;2.80;99.90
2030;DHT22;1020;48.854;8.830;2023-03-04T09:37:41;2.70;99.90
2030;DHT22;1020;48.854;8.830;2023-03-04T09:40:15;2.60;99.90
2030;DHT22;1020;48.854;8.830;2023-03-04T09:42:45;2.70;99.90
2030;DHT22;1020;48.854;8.830;2023-03-04T09:45:16;2.70;99.90
2030;DHT22;1020;48.854;8.830;2023-03-04T09:47:44;2.70;99.90
2030;DHT22;1020;48.854;8.830;2023-03-04T09:50:12;2.70;99.90
2030;DHT22;1020;48.854;8.830;2023-03-04T09:52:52;2.60;99.90
2030;DHT22;1020;48.854;8.830;2023-03-04T09:55:24;2.60;90.80
2030;DHT22;1020;48.854;8.830;2023-03-04T09:57:53;2.60;88.50
2030;DHT22;1020;48.854;8.830;2023-03-04T10:00:23;2.70;94.60
2030;DHT22;1020;48.854;8.830;2023-03-04T10:03:13;2.80;72.30
2030;DHT22;1020;48.854;8.830;2023-03-04T10:05:44;2.60;42.10
2030;DHT22;1020;48.854;8.830;2023-03-04T10:11:12;2.70;57.50
2030;DHT22;1020;48.854;8.830;2023-03-04T10:13:46;2.60;1.00
2030;DHT22;1020;48.854;8.830;2023-03-04T10:16:18;2.60;18.70
2030;DHT22;1020;48.854;8.830;2023-03-04T10:18:50;2.50;1.00
2030;DHT22;1020;48.854;8.830;2023-03-04T10:21:22;2.40;1.00
2030;DHT22;1020;48.854;8.830;2023-03-04T10:23:53;2.50;83.10
2030;DHT22;1020;48.854;8.830;2023-03-04T10:26:20;2.70;65.10
2030;DHT22;1020;48.854;8.830;2023-03-04T10:28:48;2.80;27.80
2030;DHT22;1020;48.854;8.830;2023-03-04T10:31:19;3.00;26.90
2030;DHT22;1020;48.854;8.830;2023-03-04T10:33:47;3.10;1.00
2030;DHT22;1020;48.854;8.830;2023-03-04T10:36:36;2.90;1.00
2030;DHT22;1020;48.854;8.830;2023-03-04T10:39:08;3.00;1.00
2030;DHT22;1020;48.854;8.830;2023-03-04T10:41:39;2.90;1.00
2030;DHT22;1020;48.854;8.830;2023-03-04T10:44:14;3.00;1.00
2030;DHT22;1020;48.854;8.830;2023-03-04T10:46:43;3.20;1.00
2030;DHT22;1020;48.854;8.830;2023-03-04T10:49:10;3.30;1.00
2030;DHT22;1020;48.854;8.830;2023-03-04T10:51:42;3.40;1.00
2030;DHT22;1020;48.854;8.830;2023-03-04T10:54:23;3.60;1.00
2030;DHT22;1020;48.854;8.830;2023-03-04T10:56:56;3.30;1.00
2030;DHT22;1020;48.854;8.830;2023-03-04T10:59:43;3.20;1.00
2030;DHT22;1020;48.854;8.830;2023-03-04T11:02:19;3.30;1.00
2030;DHT22;1020;48.854;8.830;2023-03-04T11:04:49;3.40;1.00
2030;DHT22;1020;48.854;8.830;2023-03-04T11:07:18;3.20;1.00
2030;DHT22;1020;48.854;8.830;2023-03-04T11:09:46;3.30;1.00
2030;DHT22;1020;48.854;8.830;2023-03-04T11:12:15;3.10;1.00
2030;DHT22;1020;48.854;8.830;2023-03-04T11:14:45;3.10;1.00
2030;DHT22;1020;48.854;8.830;2023-03-04T11:17:19;3.10;1.00
2030;DHT22;1020;48.854;8.830;2023-03-04T11:19:50;3.00;1.00
2030;DHT22;1020;48.854;8.830;2023-03-04T11:22:20;3.00;1.00
2030;DHT22;1020;48.854;8.830;2023-03-04T11:24:55;3.10;1.00
2030;DHT22;1020;48.854;8.830;2023-03-04T11:27:27;3.20;1.00
2030;DHT22;1020;48.854;8.830;2023-03-04T11:29:59;3.20;1.00
2030;DHT22;1020;48.854;8.830;2023-03-04T11:32:28;3.30;1.00
2030;DHT22;1020;48.854;8.830;2023-03-04T11:35:00;3.40;1.00
2030;DHT22;1020;48.854;8.830;2023-03-04T11:37:32;3.10;1.00
2030;DHT22;1020;48.854;8.830;2023-03-04T11:40:04;3.20;1.00
2030;DHT22;1020;48.854;8.830;2023-03-04T11:42:35;3.00;1.00
2030;DHT22;1020;48.854;8.830;2023-03-04T11:45:10;3.00;1.00
2030;DHT22;1020;48.854;8.830;2023-03-04T11:47:46;3.10;1.00
2030;DHT22;1020;48.854;8.830;2023-03-04T11:50:28;3.20;1.00
2030;DHT22;1020;48.854;8.830;2023-03-04T11:53:14;3.30;1.00
2030;DHT22;1020;48.854;8.830;2023-03-04T11:55:52;3.20;1.00
2030;DHT22;1020;48.854;8.830;2023-03-04T12:01:34;3.30;1.00
2030;DHT22;1020;48.854;8.830;2023-03-04T12:04:15;3.30;1.00
2030;DHT22;1020;48.854;8.830;2023-03-04T12:06:53;3.00;1.00
2030;DHT22;1020;48.854;8.830;2023-03-04T12:09:31;3.00;1.00
2030;DHT22;1020;48.854;8.830;2023-03-04T12:12:18;3.20;1.00
2030;DHT22;1020;48.854;8.830;2023-03-04T12:14:52;3.10;1.00
2030;DHT22;1020;48.854;8.830;2023-03-04T12:17:53;3.30;1.00
2030;DHT22;1020;48.854;8.830;2023-03-04T12:23:25;3.20;1.00
2030;DHT22;1020;48.854;8.830;2023-03-04T12:25:57;3.20;1.00
2030;DHT22;1020;48.854;8.830;2023-03-04T12:28:39;3.20;1.00
2030;DHT22;1020;48.854;8.830;2023-03-04T12:31:29;2.80;1.00
2030;DHT22;1020;48.854;8.830;2023-03-04T12:34:20;2.60;1.00
2030;DHT22;1020;48.854;8.830;2023-03-04T12:36:54;2.60;1.00
2030;DHT22;1020;48.854;8.830;2023-03-04T12:39:29;2.70;1.00
2030;DHT22;1020;48.854;8.830;2023-03-04T12:42:05;2.40;1.00
2030;DHT22;1020;48.854;8.830;2023-03-04T12:44:39;2.50;1.00
2030;DHT22;1020;48.854;8.830;2023-03-04T12:47:23;2.60;1.00
2030;DHT22;1020;48.854;8.830;2023-03-04T12:50:21;2.60;1.00
2030;DHT22;1020;48.854;8.830;2023-03-04T12:52:54;2.60;1.00
2030;DHT22;1020;48.854;8.830;2023-03-04T12:55:31;2.80;1.00
2030;DHT22;1020;48.854;8.830;2023-03-04T12:58:02;2.90;1.00
2030;DHT22;1020;48.854;8.830;2023-03-04T13:00:41;3.10;1.00
2030;DHT22;1020;48.854;8.830;2023-03-04T13:03:16;3.20;1.00
2030;DHT22;1020;48.854;8.830;2023-03-04T13:05:58;3.20;1.00
2030;DHT22;1020;48.854;8.830;2023-03-04T13:08:37;3.30;1.00
2030;DHT22;1020;48.854;8.830;2023-03-04T13:14:31;3.10;1.00
2030;DHT22;1020;48.854;8.830;2023-03-04T13:17:01;2.80;1.00
2030;DHT22;1020;48.854;8.830;2023-03-04T13:19:48;2.90;1.00
2030;DHT22;1020;48.854;8.830;2023-03-04T13:22:46;2.70;1.00
2030;DHT22;1020;48.854;8.830;2023-03-04T13:25:33;3.00;1.00
2030;DHT22;1020;48.854;8.830;2023-03-04T13:28:22;3.00;1.00
2030;DHT22;1020;48.854;8.830;2023-03-04T13:31:20;3.00;1.00
2030;DHT22;1020;48.854;8.830;2023-03-04T13:34:39;3.10;1.00
2030;DHT22;1020;48.854;8.830;2023-03-04T13:36:55;3.00;1.00
2030;DHT22;1020;48.854;8.830;2023-03-04T13:39:34;3.00;1.00
2030;DHT22;1020;48.854;8.830;2023-03-04T13:42:03;3.00;1.00
2030;DHT22;1020;48.854;8.830;2023-03-04T13:45:03;3.10;1.00
2030;DHT22;1020;48.854;8.830;2023-03-04T13:47:48;3.30;1.00
2030;DHT22;1020;48.854;8.830;2023-03-04T13:50:46;3.20;1.00
2030;DHT22;1020;48.854;8.830;2023-03-04T13:56:09;3.30;1.00
2030;DHT22;1020;48.854;8.830;2023-03-04T13:58:38;3.20;1.00
2030;DHT22;1020;48.854;8.830;2023-03-04T14:01:17;3.10;1.00
2030;DHT22;1020;48.854;8.830;2023-03-04T14:03:47;3.10;1.00
2030;DHT22;1020;48.854;8.830;2023-03-04T14:06:18;3.20;1.00
2030;DHT22;1020;48.854;8.830;2023-03-04T14:08:46;3.20;1.00
2030;DHT22;1020;48.854;8.830;2023-03-04T14:11:15;3.30;1.00
2030;DHT22;1020;48.854;8.830;2023-03-04T14:13:44;3.30;1.00
2030;DHT22;1020;48.854;8.830;2023-03-04T14:16:11;3.30;1.00
2030;DHT22;1020;48.854;8.830;2023-03-04T14:18:37;3.20;1.00
2030;DHT22;1020;48.854;8.830;2023-03-04T14:21:05;3.20;1.00
2030;DHT22;1020;48.854;8.830;2023-03-04T14:23:35;3.10;1.00
2030;DHT22;1020;48.854;8.830;2023-03-04T14:26:06;3.00;1.00
2030;DHT22;1020;48.854;8.830;2023-03-04T14:28:33;3.00;1.00
2030;DHT22;1020;48.854;8.830;2023-03-04T14:31:15;3.10;1.00
2030;DHT22;1020;48.854;8.830;2023-03-04T14:33:44;3.10;1.00
2030;DHT22;1020;48.854;8.830;2023-03-04T14:36:16;3.10;1.00
2030;DHT22;1020;48.854;8.830;2023-03-04T14:38:50;3.10;1.00
2030;DHT22;1020;48.854;8.830;2023-03-04T14:41:21;3.10;1.00
2030;DHT22;1020;48.854;8.830;2023-03-04T14:43:52;3.10;1.00
2030;DHT22;1020;48.854;8.830;2023-03-04T14:46:21;3.10;1.00
2030;DHT22;1020;48.854;8.830;2023-03-04T14:48:52;3.00;1.00
2030;DHT22;1020;48.854;8.830;2023-03-04T14:51:31;3.00;1.00
2030;DHT22;1020;48.854;8.830;2023-03-04T14:53:59;2.90;1.00
2030;DHT22;1020;48.854;8.830;2023-03-04T14:56:27;4.30;1.00
2030;DHT22;1020;48.854;8.830;2023-03-04T14:58:55;2.90;1.00
2030;DHT22;1020;48.854;8.830;2023-03-04T15:01:29;3.00;1.00
2030;DHT22;1020;48.854;8.830;2023-03-04T15:03:59;2.90;1.00
2030;DHT22;1020;48.854;8.830;2023-03-04T15:06:29;3.00;1.00
2030;DHT22;1020;48.854;8.830;2023-03-04T15:09:00;3.00;1.00
2030;DHT22;1020;48.854;8.830;2023-03-04T15:11:29;3.00;1.00
2030;DHT22;1020;48.854;8.830;2023-03-04T15:13:58;3.00;1.00
2030;DHT22;1020;48.854;8.830;2023-03-04T15:16:26;2.70;1.00
2030;DHT22;1020;48.854;8.830;2023-03-04T15:18:56;2.60;1.00
2030;DHT22;1020;48.854;8.830;2023-03-04T15:21:33;2.70;1.00
2030;DHT22;1020;48.854;8.830;2023-03-04T15:24:03;2.70;1.00
2030;DHT22;1020;48.854;8.830;2023-03-04T15:26:32;2.60;1.00
2030;DHT22;1020;48.854;8.830;2023-03-04T15:28:59;2.50;1.00
2030;DHT22;1020;48.854;8.830;2023-03-04T15:31:26;2.50;1.00
2030;DHT22;1020;48.854;8.830;2023-03-04T15:33:54;2.50;1.00
2030;DHT22;1020;48.854;8.830;2023-03-04T15:36:21;2.60;1.00
2030;DHT22;1020;48.854;8.830;2023-03-04T15:38:50;2.60;1.00
2030;DHT22;1020;48.854;8.830;2023-03-04T15:41:21;2.70;1.00
2030;DHT22;1020;48.854;8.830;2023-03-04T15:43:49;2.70;1.00
2030;DHT22;1020;48.854;8.830;2023-03-04T15:46:15;2.70;1.00
2030;DHT22;1020;48.854;8.830;2023-03-04T15:48:42;2.70;1.00
2030;DHT22;1020;48.854;8.830;2023-03-04T15:51:13;2.70;1.00
2030;DHT22;1020;48.854;8.830;2023-03-04T15:53:42;2.60;1.00
2030;DHT22;1020;48.854;8.830;2023-03-04T15:56:12;2.70;1.00
2030;DHT22;1020;48.854;8.830;2023-03-04T15:58:41;2.80;1.00
2030;DHT22;1020;48.854;8.830;2023-03-04T16:01:12;2.70;1.00
2030;DHT22;1020;48.854;8.830;2023-03-04T16:03:40;2.70;1.00
2030;DHT22;1020;48.854;8.830;2023-03-04T16:06:08;2.80;1.00
2030;DHT22;1020;48.854;8.830;2023-03-04T16:08:36;2.80;1.00
2030;DHT22;1020;48.854;8.830;2023-03-04T16:11:03;2.90;1.00
2030;DHT22;1020;48.854;8.830;2023-03-04T16:13:29;2.80;1.00
2030;DHT22;1020;48.854;8.830;2023-03-04T16:15:58;2.80;1.00
2030;DHT22;1020;48.854;8.830;2023-03-04T16:18:24;2.80;1.00
2030;DHT22;1020;48.854;8.830;2023-03-04T16:20:51;2.90;1.00
2030;DHT22;1020;48.854;8.830;2023-03-04T16:23:20;2.70;1.00
2030;DHT22;1020;48.854;8.830;2023-03-04T16:25:49;2.80;1.00
2030;DHT22;1020;48.854;8.830;2023-03-04T16:28:17;2.70;1.00
2030;DHT22;1020;48.854;8.830;2023-03-04T16:30:43;2.80;1.00
2030;DHT22;1020;48.854;8.830;2023-03-04T16:33:12;2.70;1.00
2030;DHT22;1020;48.854;8.830;2023-03-04T16:35:40;2.80;1.00
2030;DHT22;1020;48.854;8.830;2023-03-04T16:38:16;2.80;1.00
2030;DHT22;1020;48.854;8.830;2023-03-04T16:40:44;2.70;1.00
2030;DHT22;1020;48.854;8.830;2023-03-04T16:43:11;2.70;1.00
2030;DHT22;1020;48.854;8.830;2023-03-04T16:45:38;2.70;1.00
2030;DHT22;1020;48.854;8.830;2023-03-04T16:48:05;2.70;1.00
2030;DHT22;1020;48.854;8.830;2023-03-04T16:50:35;2.70;1.00
2030;DHT22;1020;48.854;8.830;2023-03-04T16:53:03;2.70;1.00
2030;DHT22;1020;48.854;8.830;2023-03-04T16:55:30;2.80;1.00